sensor_id;sensor_type;location;lat;lon;timestamp;P1;durP1;ratioP1;P2;durP2;ratioP2
7527;SDS011;3805;49.006;8.514;2023-05-20T00:02:10;7.60;;;6.80;;
7527;SDS011;3805;49.006;8.514;2023-05-20T00:04:58;7.30;;;6.67;;
7527;SDS011;3805;49.006;8.514;2023-05-20T00:07:48;8.73;;;7.20;;
7527;SDS011;3805;49.006;8.514;2023-05-20T00:10:37;7.90;;;7.30;;
7527;SDS011;3805;49.006;8.514;2023-05-20T00:13:25;7.87;;;7.00;;
7527;SDS011;3805;49.006;8.514;2023-05-20T00:16:14;7.80;;;7.10;;
7527;SDS011;3805;49.006;8.514;2023-05-20T00:19:02;8.77;;;8.00;;
7527;SDS011;3805;49.006;8.514;2023-05-20T00:21:51;8.17;;;7.37;;
7527;SDS011;3805;49.006;8.514;2023-05-20T00:24:41;7.57;;;6.97;;
7527;SDS011;3805;49.006;8.514;2023-05-20T00:27:30;8.80;;;7.90;;
7527;SDS011;3805;49.006;8.514;2023-05-20T00:30:18;10.20;;;7.27;;
7527;SDS011;3805;49.006;8.514;2023-05-20T00:33:07;8.13;;;7.40;;
7527;SDS011;3805;49.006;8.514;2023-05-20T00:35:56;8.47;;;7.67;;
7527;SDS011;3805;49.006;8.514;2023-05-20T00:38:45;7.37;;;6.70;;
7527;SDS011;3805;49.006;8.514;2023-05-20T00:41:34;8.00;;;7.20;;
7527;SDS011;3805;49.006;8.514;2023-05-20T00:44:23;8.10;;;7.30;;
7527;SDS011;3805;49.006;8.514;2023-05-20T00:47:12;7.33;;;6.73;;
7527;SDS011;3805;49.006;8.514;2023-05-20T00:50:01;7.77;;;6.80;;
7527;SDS011;3805;49.006;8.514;2023-05-20T00:52:50;8.47;;;7.57;;
7527;SDS011;3805;49.006;8.514;2023-05-20T00:55:41;6.63;;;6.13;;
7527;SDS011;3805;49.006;8.514;2023-05-20T00:58:31;6.73;;;6.10;;
7527;SDS011;3805;49.006;8.514;2023-05-20T01:01:19;7.33;;;6.27;;
7527;SDS011;3805;49.006;8.514;2023-05-20T01:04:08;8.03;;;7.30;;
7527;SDS011;3805;49.006;8.514;2023-05-20T01:06:57;7.67;;;6.77;;
7527;SDS011;3805;49.006;8.514;2023-05-20T01:09:47;7.90;;;6.80;;
7527;SDS011;3805;49.006;8.514;2023-05-20T01:12:36;7.83;;;7.10;;
7527;SDS011;3805;49.006;8.514;2023-05-20T01:15:27;7.13;;;6.50;;
7527;SDS011;3805;49.006;8.514;2023-05-20T01:18:17;7.50;;;6.67;;
7527;SDS011;3805;49.006;8.514;2023-05-20T01:21:06;7.97;;;7.23;;
7527;SDS011;3805;49.006;8.514;2023-05-20T01:23:59;7.53;;;6.93;;
7527;SDS011;3805;49.006;8.514;2023-05-20T01:26:50;7.67;;;6.60;;
7527;SDS011;3805;49.006;8.514;2023-05-20T01:29:39;7.57;;;6.83;;
7527;SDS011;3805;49.006;8.514;2023-05-20T01:32:30;8.10;;;6.77;;
7527;SDS011;3805;49.006;8.514;2023-05-20T01:35:20;7.07;;;6.37;;
7527;SDS011;3805;49.006;8.514;2023-05-20T01:38:09;6.70;;;6.20;;
7527;SDS011;3805;49.006;8.514;2023-05-20T01:40:59;7.30;;;6.70;;
7527;SDS011;3805;49.006;8.514;2023-05-20T01:43:50;8.43;;;6.57;;
7527;SDS011;3805;49.006;8.514;2023-05-20T01:46:39;7.33;;;6.47;;
7527;SDS011;3805;49.006;8.514;2023-05-20T01:49:27;6.40;;;5.90;;
7527;SDS011;3805;49.006;8.514;2023-05-20T01:52:16;7.37;;;6.63;;
7527;SDS011;3805;49.006;8.514;2023-05-20T01:55:05;7.47;;;6.40;;
7527;SDS011;3805;49.006;8.514;2023-05-20T01:57:55;6.80;;;6.30;;
7527;SDS011;3805;49.006;8.514;2023-05-20T02:00:43;6.57;;;6.00;;
7527;SDS011;3805;49.006;8.514;2023-05-20T02:03:32;7.40;;;6.70;;
7527;SDS011;3805;49.006;8.514;2023-05-20T02:06:21;7.07;;;6.40;;
7527;SDS011;3805;49.006;8.514;2023-05-20T02:09:09;6.43;;;5.93;;
7527;SDS011;3805;49.006;8.514;2023-05-20T02:11:58;6.93;;;6.33;;
7527;SDS011;3805;49.006;8.514;2023-05-20T02:14:48;8.57;;;7.00;;
7527;SDS011;3805;49.006;8.514;2023-05-20T02:17:37;6.60;;;6.10;;
7527;SDS011;3805;49.006;8.514;2023-05-20T02:20:26;7.70;;;7.00;;
7527;SDS011;3805;49.006;8.514;2023-05-20T02:23:15;6.13;;;5.70;;
7527;SDS011;3805;49.006;8.514;2023-05-20T02:26:04;7.57;;;6.87;;
7527;SDS011;3805;49.006;8.514;2023-05-20T02:28:52;6.13;;;5.70;;
7527;SDS011;3805;49.006;8.514;2023-05-20T02:31:42;6.53;;;5.90;;
7527;SDS011;3805;49.006;8.514;2023-05-20T02:34:31;6.30;;;5.80;;
7527;SDS011;3805;49.006;8.514;2023-05-20T02:37:19;6.57;;;5.97;;
7527;SDS011;3805;49.006;8.514;2023-05-20T02:40:08;6.23;;;5.70;;
7527;SDS011;3805;49.006;8.514;2023-05-20T02:42:58;7.00;;;5.97;;
7527;SDS011;3805;49.006;8.514;2023-05-20T02:45:47;8.40;;;6.90;;
7527;SDS011;3805;49.006;8.514;2023-05-20T02:48:37;6.30;;;5.33;;
7527;SDS011;3805;49.006;8.514;2023-05-20T02:51:26;7.10;;;5.73;;
7527;SDS011;3805;49.006;8.514;2023-05-20T02:54:14;6.30;;;5.77;;
7527;SDS011;3805;49.006;8.514;2023-05-20T02:57:03;7.30;;;6.07;;
7527;SDS011;3805;49.006;8.514;2023-05-20T02:59:52;6.60;;;5.90;;
7527;SDS011;3805;49.006;8.514;2023-05-20T03:02:41;6.50;;;5.90;;
7527;SDS011;3805;49.006;8.514;2023-05-20T03:05:31;5.77;;;5.27;;
7527;SDS011;3805;49.006;8.514;2023-05-20T03:08:23;5.37;;;4.93;;
7527;SDS011;3805;49.006;8.514;2023-05-20T03:11:12;5.97;;;5.47;;
7527;SDS011;3805;49.006;8.514;2023-05-20T03:14:02;6.13;;;5.53;;
7527;SDS011;3805;49.006;8.514;2023-05-20T03:16:50;6.17;;;5.57;;
7527;SDS011;3805;49.006;8.514;2023-05-20T03:19:41;6.00;;;5.50;;
7527;SDS011;3805;49.006;8.514;2023-05-20T03:22:31;6.60;;;5.93;;
7527;SDS011;3805;49.006;8.514;2023-05-20T03:25:20;6.23;;;5.73;;
7527;SDS011;3805;49.006;8.514;2023-05-20T03:28:09;5.40;;;5.00;;
7527;SDS011;3805;49.006;8.514;2023-05-20T03:30:58;5.47;;;5.07;;
7527;SDS011;3805;49.006;8.514;2023-05-20T03:33:48;6.50;;;5.90;;
7527;SDS011;3805;49.006;8.514;2023-05-20T03:36:37;6.30;;;5.67;;
7527;SDS011;3805;49.006;8.514;2023-05-20T03:39:27;6.23;;;5.63;;
7527;SDS011;3805;49.006;8.514;2023-05-20T03:42:15;6.53;;;5.90;;
7527;SDS011;3805;49.006;8.514;2023-05-20T03:45:04;6.20;;;5.60;;
7527;SDS011;3805;49.006;8.514;2023-05-20T03:47:53;6.10;;;5.60;;
7527;SDS011;3805;49.006;8.514;2023-05-20T03:50:42;6.30;;;5.70;;
7527;SDS011;3805;49.006;8.514;2023-05-20T03:53:31;5.83;;;5.27;;
7527;SDS011;3805;49.006;8.514;2023-05-20T03:56:21;5.53;;;5.03;;
7527;SDS011;3805;49.006;8.514;2023-05-20T03:59:09;5.20;;;4.80;;
7527;SDS011;3805;49.006;8.514;2023-05-20T04:01:58;6.57;;;5.87;;
7527;SDS011;3805;49.006;8.514;2023-05-20T04:04:46;6.40;;;5.80;;
7527;SDS011;3805;49.006;8.514;2023-05-20T04:07:38;6.33;;;5.83;;
7527;SDS011;3805;49.006;8.514;2023-05-20T04:10:27;6.10;;;5.50;;
7527;SDS011;3805;49.006;8.514;2023-05-20T04:13:19;14.10;;;5.63;;
7527;SDS011;3805;49.006;8.514;2023-05-20T04:16:07;7.37;;;6.67;;
7527;SDS011;3805;49.006;8.514;2023-05-20T04:18:56;5.77;;;5.27;;
7527;SDS011;3805;49.006;8.514;2023-05-20T04:21:47;6.50;;;5.97;;
7527;SDS011;3805;49.006;8.514;2023-05-20T04:24:35;6.03;;;5.53;;
7527;SDS011;3805;49.006;8.514;2023-05-20T04:27:24;5.50;;;5.10;;
7527;SDS011;3805;49.006;8.514;2023-05-20T04:30:14;6.50;;;5.90;;
7527;SDS011;3805;49.006;8.514;2023-05-20T04:33:04;7.73;;;5.80;;
7527;SDS011;3805;49.006;8.514;2023-05-20T04:35:53;5.90;;;5.50;;
7527;SDS011;3805;49.006;8.514;2023-05-20T04:38:44;6.00;;;5.50;;
7527;SDS011;3805;49.006;8.514;2023-05-20T04:41:34;5.70;;;4.97;;
7527;SDS011;3805;49.006;8.514;2023-05-20T04:44:23;6.83;;;5.70;;
7527;SDS011;3805;49.006;8.514;2023-05-20T04:47:13;6.13;;;5.53;;
7527;SDS011;3805;49.006;8.514;2023-05-20T04:50:02;5.77;;;5.27;;
7527;SDS011;3805;49.006;8.514;2023-05-20T04:52:52;5.60;;;5.10;;
7527;SDS011;3805;49.006;8.514;2023-05-20T04:55:41;6.80;;;5.77;;
7527;SDS011;3805;49.006;8.514;2023-05-20T04:58:30;6.13;;;4.90;;
7527;SDS011;3805;49.006;8.514;2023-05-20T05:01:19;5.27;;;4.80;;
7527;SDS011;3805;49.006;8.514;2023-05-20T05:04:09;5.80;;;5.30;;
7527;SDS011;3805;49.006;8.514;2023-05-20T05:06:57;5.17;;;4.77;;
7527;SDS011;3805;49.006;8.514;2023-05-20T05:09:46;5.17;;;4.77;;
7527;SDS011;3805;49.006;8.514;2023-05-20T05:12:34;5.23;;;4.90;;
7527;SDS011;3805;49.006;8.514;2023-05-20T05:15:23;6.03;;;5.30;;
7527;SDS011;3805;49.006;8.514;2023-05-20T05:18:11;6.30;;;5.70;;
7527;SDS011;3805;49.006;8.514;2023-05-20T05:21:05;5.40;;;4.90;;
7527;SDS011;3805;49.006;8.514;2023-05-20T05:23:54;7.00;;;5.63;;
7527;SDS011;3805;49.006;8.514;2023-05-20T05:26:44;6.30;;;4.83;;
7527;SDS011;3805;49.006;8.514;2023-05-20T05:29:33;6.10;;;5.60;;
7527;SDS011;3805;49.006;8.514;2023-05-20T05:32:21;6.50;;;5.40;;
7527;SDS011;3805;49.006;8.514;2023-05-20T05:35:10;5.30;;;4.80;;
7527;SDS011;3805;49.006;8.514;2023-05-20T05:38:00;5.53;;;5.13;;
7527;SDS011;3805;49.006;8.514;2023-05-20T05:40:49;5.20;;;4.70;;
7527;SDS011;3805;49.006;8.514;2023-05-20T05:43:37;6.70;;;5.40;;
7527;SDS011;3805;49.006;8.514;2023-05-20T05:46:26;5.83;;;5.33;;
7527;SDS011;3805;49.006;8.514;2023-05-20T05:49:14;5.10;;;4.80;;
7527;SDS011;3805;49.006;8.514;2023-05-20T05:52:03;5.93;;;5.47;;
7527;SDS011;3805;49.006;8.514;2023-05-20T05:54:54;4.90;;;4.50;;
7527;SDS011;3805;49.006;8.514;2023-05-20T05:57:42;5.60;;;5.10;;
7527;SDS011;3805;49.006;8.514;2023-05-20T06:00:31;7.43;;;5.30;;
7527;SDS011;3805;49.006;8.514;2023-05-20T06:03:19;7.97;;;5.90;;
7527;SDS011;3805;49.006;8.514;2023-05-20T06:06:08;4.80;;;4.40;;
7527;SDS011;3805;49.006;8.514;2023-05-20T06:08:57;5.70;;;5.20;;
7527;SDS011;3805;49.006;8.514;2023-05-20T06:11:47;5.30;;;4.90;;
7527;SDS011;3805;49.006;8.514;2023-05-20T06:14:35;4.90;;;4.50;;
7527;SDS011;3805;49.006;8.514;2023-05-20T06:17:24;5.93;;;5.43;;
7527;SDS011;3805;49.006;8.514;2023-05-20T06:20:13;5.83;;;5.07;;
7527;SDS011;3805;49.006;8.514;2023-05-20T06:23:01;6.40;;;5.70;;
7527;SDS011;3805;49.006;8.514;2023-05-20T06:25:50;6.60;;;5.40;;
7527;SDS011;3805;49.006;8.514;2023-05-20T06:28:40;4.90;;;4.50;;
7527;SDS011;3805;49.006;8.514;2023-05-20T06:31:28;5.20;;;4.80;;
7527;SDS011;3805;49.006;8.514;2023-05-20T06:34:17;7.30;;;6.57;;
7527;SDS011;3805;49.006;8.514;2023-05-20T06:37:06;7.03;;;6.43;;
7527;SDS011;3805;49.006;8.514;2023-05-20T06:39:54;7.40;;;6.70;;
7527;SDS011;3805;49.006;8.514;2023-05-20T06:42:43;7.63;;;7.03;;
7527;SDS011;3805;49.006;8.514;2023-05-20T06:45:33;8.87;;;8.07;;
7527;SDS011;3805;49.006;8.514;2023-05-20T06:48:21;6.53;;;5.93;;
7527;SDS011;3805;49.006;8.514;2023-05-20T06:51:10;7.90;;;7.10;;
7527;SDS011;3805;49.006;8.514;2023-05-20T06:53:58;7.10;;;6.50;;
7527;SDS011;3805;49.006;8.514;2023-05-20T06:56:47;7.80;;;7.00;;
7527;SDS011;3805;49.006;8.514;2023-05-20T06:59:36;7.07;;;6.50;;
7527;SDS011;3805;49.006;8.514;2023-05-20T07:02:26;6.83;;;6.23;;
7527;SDS011;3805;49.006;8.514;2023-05-20T07:05:15;8.30;;;7.50;;
7527;SDS011;3805;49.006;8.514;2023-05-20T07:08:03;7.67;;;7.07;;
7527;SDS011;3805;49.006;8.514;2023-05-20T07:10:54;6.80;;;6.23;;
7527;SDS011;3805;49.006;8.514;2023-05-20T07:13:42;7.23;;;6.70;;
7527;SDS011;3805;49.006;8.514;2023-05-20T07:16:31;7.37;;;6.67;;
7527;SDS011;3805;49.006;8.514;2023-05-20T07:19:22;7.40;;;6.53;;
7527;SDS011;3805;49.006;8.514;2023-05-20T07:22:11;7.07;;;6.43;;
7527;SDS011;3805;49.006;8.514;2023-05-20T07:24:59;7.50;;;6.77;;
7527;SDS011;3805;49.006;8.514;2023-05-20T07:27:48;7.47;;;6.80;;
7527;SDS011;3805;49.006;8.514;2023-05-20T07:30:37;7.33;;;6.73;;
7527;SDS011;3805;49.006;8.514;2023-05-20T07:33:25;6.73;;;6.10;;
7527;SDS011;3805;49.006;8.514;2023-05-20T07:36:16;7.67;;;6.90;;
7527;SDS011;3805;49.006;8.514;2023-05-20T07:39:05;8.20;;;7.40;;
7527;SDS011;3805;49.006;8.514;2023-05-20T07:42:01;7.77;;;6.97;;
7527;SDS011;3805;49.006;8.514;2023-05-20T07:44:49;7.47;;;6.43;;
7527;SDS011;3805;49.006;8.514;2023-05-20T07:47:38;7.73;;;6.83;;
7527;SDS011;3805;49.006;8.514;2023-05-20T07:50:26;7.17;;;6.57;;
7527;SDS011;3805;49.006;8.514;2023-05-20T07:53:16;12.10;;;6.80;;
7527;SDS011;3805;49.006;8.514;2023-05-20T07:56:06;8.07;;;7.10;;
7527;SDS011;3805;49.006;8.514;2023-05-20T07:58:55;7.80;;;7.00;;
7527;SDS011;3805;49.006;8.514;2023-05-20T08:01:45;7.80;;;7.10;;
7527;SDS011;3805;49.006;8.514;2023-05-20T08:04:33;7.60;;;6.87;;
7527;SDS011;3805;49.006;8.514;2023-05-20T08:07:23;8.23;;;7.43;;
7527;SDS011;3805;49.006;8.514;2023-05-20T08:10:13;9.73;;;8.20;;
7527;SDS011;3805;49.006;8.514;2023-05-20T08:13:01;7.67;;;6.97;;
7527;SDS011;3805;49.006;8.514;2023-05-20T08:15:51;8.73;;;7.83;;
7527;SDS011;3805;49.006;8.514;2023-05-20T08:18:40;8.33;;;7.53;;
7527;SDS011;3805;49.006;8.514;2023-05-20T08:21:29;7.87;;;7.27;;
7527;SDS011;3805;49.006;8.514;2023-05-20T08:24:18;10.60;;;7.80;;
7527;SDS011;3805;49.006;8.514;2023-05-20T08:27:08;8.30;;;7.60;;
7527;SDS011;3805;49.006;8.514;2023-05-20T08:29:56;9.53;;;7.03;;
7527;SDS011;3805;49.006;8.514;2023-05-20T08:32:47;7.57;;;6.80;;
7527;SDS011;3805;49.006;8.514;2023-05-20T08:35:35;8.07;;;7.40;;
7527;SDS011;3805;49.006;8.514;2023-05-20T08:38:25;8.03;;;7.43;;
7527;SDS011;3805;49.006;8.514;2023-05-20T08:41:14;8.10;;;7.40;;
7527;SDS011;3805;49.006;8.514;2023-05-20T08:44:04;7.53;;;6.83;;
7527;SDS011;3805;49.006;8.514;2023-05-20T08:46:53;7.33;;;6.63;;
7527;SDS011;3805;49.006;8.514;2023-05-20T08:49:43;7.30;;;6.80;;
7527;SDS011;3805;49.006;8.514;2023-05-20T08:52:31;7.60;;;7.00;;
7527;SDS011;3805;49.006;8.514;2023-05-20T08:55:23;8.07;;;6.90;;
7527;SDS011;3805;49.006;8.514;2023-05-20T08:58:14;7.73;;;7.13;;
7527;SDS011;3805;49.006;8.514;2023-05-20T09:01:05;8.00;;;7.40;;
7527;SDS011;3805;49.006;8.514;2023-05-20T09:03:55;8.60;;;7.80;;
7527;SDS011;3805;49.006;8.514;2023-05-20T09:06:44;7.57;;;6.87;;
7527;SDS011;3805;49.006;8.514;2023-05-20T09:09:33;7.33;;;6.77;;
7527;SDS011;3805;49.006;8.514;2023-05-20T09:12:22;8.30;;;7.07;;
7527;SDS011;3805;49.006;8.514;2023-05-20T09:15:11;7.50;;;6.80;;
7527;SDS011;3805;49.006;8.514;2023-05-20T09:18:01;8.67;;;7.27;;
7527;SDS011;3805;49.006;8.514;2023-05-20T09:20:51;7.70;;;6.90;;
7527;SDS011;3805;49.006;8.514;2023-05-20T09:23:39;6.90;;;6.30;;
7527;SDS011;3805;49.006;8.514;2023-05-20T09:26:34;8.03;;;7.40;;
7527;SDS011;3805;49.006;8.514;2023-05-20T09:29:23;7.80;;;7.07;;
7527;SDS011;3805;49.006;8.514;2023-05-20T09:32:11;7.53;;;6.83;;
7527;SDS011;3805;49.006;8.514;2023-05-20T09:35:02;10.43;;;6.47;;
7527;SDS011;3805;49.006;8.514;2023-05-20T09:37:52;7.27;;;6.63;;
7527;SDS011;3805;49.006;8.514;2023-05-20T09:40:42;7.60;;;7.00;;
7527;SDS011;3805;49.006;8.514;2023-05-20T09:43:31;6.60;;;6.10;;
7527;SDS011;3805;49.006;8.514;2023-05-20T09:46:20;6.87;;;6.27;;
7527;SDS011;3805;49.006;8.514;2023-05-20T09:49:08;6.50;;;5.93;;
7527;SDS011;3805;49.006;8.514;2023-05-20T09:51:59;6.73;;;6.17;;
7527;SDS011;3805;49.006;8.514;2023-05-20T09:54:52;7.50;;;6.90;;
7527;SDS011;3805;49.006;8.514;2023-05-20T09:57:42;7.43;;;6.73;;
7527;SDS011;3805;49.006;8.514;2023-05-20T10:00:31;8.03;;;7.27;;
7527;SDS011;3805;49.006;8.514;2023-05-20T10:03:20;6.57;;;6.10;;
7527;SDS011;3805;49.006;8.514;2023-05-20T10:06:15;7.50;;;6.80;;
7527;SDS011;3805;49.006;8.514;2023-05-20T10:09:18;6.90;;;6.40;;
7527;SDS011;3805;49.006;8.514;2023-05-20T10:12:15;7.33;;;6.67;;
7527;SDS011;3805;49.006;8.514;2023-05-20T10:15:12;6.80;;;6.30;;
7527;SDS011;3805;49.006;8.514;2023-05-20T10:18:07;7.03;;;6.40;;
7527;SDS011;3805;49.006;8.514;2023-05-20T10:21:00;7.23;;;6.53;;
7527;SDS011;3805;49.006;8.514;2023-05-20T10:23:49;8.93;;;7.07;;
7527;SDS011;3805;49.006;8.514;2023-05-20T10:26:39;6.77;;;6.27;;
7527;SDS011;3805;49.006;8.514;2023-05-20T10:29:29;7.17;;;6.57;;
7527;SDS011;3805;49.006;8.514;2023-05-20T10:32:24;7.87;;;7.00;;
7527;SDS011;3805;49.006;8.514;2023-05-20T10:35:19;7.10;;;6.40;;
7527;SDS011;3805;49.006;8.514;2023-05-20T10:38:09;6.67;;;6.10;;
7527;SDS011;3805;49.006;8.514;2023-05-20T10:41:06;6.70;;;6.10;;
7527;SDS011;3805;49.006;8.514;2023-05-20T10:44:00;6.57;;;6.07;;
7527;SDS011;3805;49.006;8.514;2023-05-20T10:46:53;6.87;;;6.13;;
7527;SDS011;3805;49.006;8.514;2023-05-20T10:50:12;6.97;;;6.37;;
7527;SDS011;3805;49.006;8.514;2023-05-20T10:53:13;6.97;;;6.47;;
7527;SDS011;3805;49.006;8.514;2023-05-20T10:56:18;7.23;;;6.63;;
7527;SDS011;3805;49.006;8.514;2023-05-20T10:59:09;7.50;;;6.90;;
7527;SDS011;3805;49.006;8.514;2023-05-20T11:01:58;7.07;;;6.47;;
7527;SDS011;3805;49.006;8.514;2023-05-20T11:04:47;6.30;;;5.90;;
7527;SDS011;3805;49.006;8.514;2023-05-20T11:07:36;6.97;;;6.33;;
7527;SDS011;3805;49.006;8.514;2023-05-20T11:10:25;6.60;;;6.10;;
7527;SDS011;3805;49.006;8.514;2023-05-20T11:13:13;8.07;;;7.20;;
7527;SDS011;3805;49.006;8.514;2023-05-20T11:16:03;7.00;;;6.40;;
7527;SDS011;3805;49.006;8.514;2023-05-20T11:18:52;7.00;;;6.50;;
7527;SDS011;3805;49.006;8.514;2023-05-20T11:21:42;7.13;;;6.57;;
7527;SDS011;3805;49.006;8.514;2023-05-20T11:24:31;6.87;;;6.27;;
7527;SDS011;3805;49.006;8.514;2023-05-20T11:27:19;6.23;;;5.63;;
7527;SDS011;3805;49.006;8.514;2023-05-20T11:30:09;6.23;;;5.73;;
7527;SDS011;3805;49.006;8.514;2023-05-20T11:33:00;6.83;;;6.33;;
7527;SDS011;3805;49.006;8.514;2023-05-20T11:35:50;6.57;;;5.57;;
7527;SDS011;3805;49.006;8.514;2023-05-20T11:38:39;7.17;;;6.23;;
7527;SDS011;3805;49.006;8.514;2023-05-20T11:41:28;6.80;;;6.20;;
7527;SDS011;3805;49.006;8.514;2023-05-20T11:44:18;6.10;;;5.57;;
7527;SDS011;3805;49.006;8.514;2023-05-20T11:47:07;7.70;;;6.17;;
7527;SDS011;3805;49.006;8.514;2023-05-20T11:49:57;6.03;;;5.60;;
7527;SDS011;3805;49.006;8.514;2023-05-20T11:52:45;6.53;;;6.07;;
7527;SDS011;3805;49.006;8.514;2023-05-20T11:55:42;7.23;;;6.40;;
7527;SDS011;3805;49.006;8.514;2023-05-20T11:58:32;8.80;;;6.77;;
7527;SDS011;3805;49.006;8.514;2023-05-20T12:01:21;7.47;;;6.97;;
7527;SDS011;3805;49.006;8.514;2023-05-20T12:04:10;7.27;;;6.57;;
7527;SDS011;3805;49.006;8.514;2023-05-20T12:07:02;7.07;;;6.47;;
7527;SDS011;3805;49.006;8.514;2023-05-20T12:09:55;7.50;;;6.80;;
7527;SDS011;3805;49.006;8.514;2023-05-20T12:12:43;6.70;;;6.20;;
7527;SDS011;3805;49.006;8.514;2023-05-20T12:15:32;7.30;;;6.60;;
7527;SDS011;3805;49.006;8.514;2023-05-20T12:18:21;8.80;;;7.90;;
7527;SDS011;3805;49.006;8.514;2023-05-20T12:21:09;7.80;;;7.10;;
7527;SDS011;3805;49.006;8.514;2023-05-20T12:23:59;7.83;;;7.03;;
7527;SDS011;3805;49.006;8.514;2023-05-20T12:26:48;6.47;;;5.97;;
7527;SDS011;3805;49.006;8.514;2023-05-20T12:29:36;7.40;;;6.80;;
7527;SDS011;3805;49.006;8.514;2023-05-20T12:32:25;8.47;;;7.67;;
7527;SDS011;3805;49.006;8.514;2023-05-20T12:35:14;6.70;;;6.20;;
7527;SDS011;3805;49.006;8.514;2023-05-20T12:38:02;7.87;;;7.07;;
7527;SDS011;3805;49.006;8.514;2023-05-20T12:40:52;6.43;;;6.03;;
7527;SDS011;3805;49.006;8.514;2023-05-20T12:43:41;7.47;;;6.87;;
7527;SDS011;3805;49.006;8.514;2023-05-20T12:46:30;6.70;;;6.10;;
7527;SDS011;3805;49.006;8.514;2023-05-20T12:49:18;7.33;;;6.80;;
7527;SDS011;3805;49.006;8.514;2023-05-20T12:52:07;7.10;;;6.60;;
7527;SDS011;3805;49.006;8.514;2023-05-20T12:55:08;7.70;;;6.70;;
7527;SDS011;3805;49.006;8.514;2023-05-20T12:58:01;7.60;;;6.97;;
7527;SDS011;3805;49.006;8.514;2023-05-20T13:00:49;6.57;;;5.93;;
7527;SDS011;3805;49.006;8.514;2023-05-20T13:03:38;7.00;;;6.40;;
7527;SDS011;3805;49.006;8.514;2023-05-20T13:06:27;7.80;;;7.20;;
7527;SDS011;3805;49.006;8.514;2023-05-20T13:09:15;7.33;;;6.40;;
7527;SDS011;3805;49.006;8.514;2023-05-20T13:12:04;7.33;;;6.63;;
7527;SDS011;3805;49.006;8.514;2023-05-20T13:14:54;7.97;;;7.37;;
7527;SDS011;3805;49.006;8.514;2023-05-20T13:17:43;7.43;;;6.73;;
7527;SDS011;3805;49.006;8.514;2023-05-20T13:20:32;6.87;;;6.30;;
7527;SDS011;3805;49.006;8.514;2023-05-20T13:23:21;7.13;;;6.43;;
7527;SDS011;3805;49.006;8.514;2023-05-20T13:26:09;7.63;;;6.80;;
7527;SDS011;3805;49.006;8.514;2023-05-20T13:28:58;7.40;;;6.67;;
7527;SDS011;3805;49.006;8.514;2023-05-20T13:31:48;7.93;;;7.13;;
7527;SDS011;3805;49.006;8.514;2023-05-20T13:34:36;6.93;;;6.20;;
7527;SDS011;3805;49.006;8.514;2023-05-20T13:37:25;9.03;;;7.00;;
7527;SDS011;3805;49.006;8.514;2023-05-20T13:40:14;7.07;;;6.47;;
7527;SDS011;3805;49.006;8.514;2023-05-20T13:43:03;7.40;;;6.80;;
7527;SDS011;3805;49.006;8.514;2023-05-20T13:45:52;8.17;;;7.47;;
7527;SDS011;3805;49.006;8.514;2023-05-20T13:48:42;7.70;;;7.20;;
7527;SDS011;3805;49.006;8.514;2023-05-20T13:51:30;8.13;;;6.47;;
7527;SDS011;3805;49.006;8.514;2023-05-20T13:54:19;8.47;;;6.50;;
7527;SDS011;3805;49.006;8.514;2023-05-20T13:57:08;7.50;;;6.97;;
7527;SDS011;3805;49.006;8.514;2023-05-20T13:59:56;7.73;;;6.93;;
7527;SDS011;3805;49.006;8.514;2023-05-20T14:02:45;7.23;;;6.67;;
7527;SDS011;3805;49.006;8.514;2023-05-20T14:05:35;6.80;;;6.30;;
7527;SDS011;3805;49.006;8.514;2023-05-20T14:08:23;6.87;;;6.47;;
7527;SDS011;3805;49.006;8.514;2023-05-20T14:11:12;7.23;;;6.73;;
7527;SDS011;3805;49.006;8.514;2023-05-20T14:14:01;7.20;;;6.53;;
7527;SDS011;3805;49.006;8.514;2023-05-20T14:16:49;7.03;;;6.53;;
7527;SDS011;3805;49.006;8.514;2023-05-20T14:19:38;8.70;;;8.00;;
7527;SDS011;3805;49.006;8.514;2023-05-20T14:22:28;6.83;;;6.30;;
7527;SDS011;3805;49.006;8.514;2023-05-20T14:25:16;6.97;;;6.40;;
7527;SDS011;3805;49.006;8.514;2023-05-20T14:28:05;7.33;;;6.73;;
7527;SDS011;3805;49.006;8.514;2023-05-20T14:30:53;7.10;;;6.50;;
7527;SDS011;3805;49.006;8.514;2023-05-20T14:33:42;8.17;;;7.27;;
7527;SDS011;3805;49.006;8.514;2023-05-20T14:36:30;7.97;;;7.37;;
7527;SDS011;3805;49.006;8.514;2023-05-20T14:39:20;7.63;;;7.00;;
7527;SDS011;3805;49.006;8.514;2023-05-20T14:42:09;7.50;;;6.90;;
7527;SDS011;3805;49.006;8.514;2023-05-20T14:44:58;6.37;;;5.97;;
7527;SDS011;3805;49.006;8.514;2023-05-20T14:47:47;8.03;;;7.23;;
7527;SDS011;3805;49.006;8.514;2023-05-20T14:50:35;7.67;;;7.07;;
7527;SDS011;3805;49.006;8.514;2023-05-20T14:53:24;7.50;;;6.40;;
7527;SDS011;3805;49.006;8.514;2023-05-20T14:56:14;12.10;;;7.40;;
7527;SDS011;3805;49.006;8.514;2023-05-20T14:59:03;8.93;;;8.10;;
7527;SDS011;3805;49.006;8.514;2023-05-20T15:01:51;7.30;;;6.70;;
7527;SDS011;3805;49.006;8.514;2023-05-20T15:04:40;10.87;;;7.30;;
7527;SDS011;3805;49.006;8.514;2023-05-20T15:07:31;8.57;;;7.87;;
7527;SDS011;3805;49.006;8.514;2023-05-20T15:10:19;6.93;;;6.50;;
7527;SDS011;3805;49.006;8.514;2023-05-20T15:13:09;7.67;;;7.07;;
7527;SDS011;3805;49.006;8.514;2023-05-20T15:15:58;7.93;;;7.23;;
7527;SDS011;3805;49.006;8.514;2023-05-20T15:18:46;7.70;;;7.00;;
7527;SDS011;3805;49.006;8.514;2023-05-20T15:21:35;7.40;;;6.90;;
7527;SDS011;3805;49.006;8.514;2023-05-20T15:24:24;7.20;;;6.70;;
7527;SDS011;3805;49.006;8.514;2023-05-20T15:27:12;7.40;;;6.80;;
7527;SDS011;3805;49.006;8.514;2023-05-20T15:30:02;7.53;;;7.00;;
7527;SDS011;3805;49.006;8.514;2023-05-20T15:32:51;8.17;;;7.37;;
7527;SDS011;3805;49.006;8.514;2023-05-20T15:35:40;7.73;;;7.13;;
7527;SDS011;3805;49.006;8.514;2023-05-20T15:38:29;7.60;;;7.00;;
7527;SDS011;3805;49.006;8.514;2023-05-20T15:41:17;8.80;;;7.83;;
7527;SDS011;3805;49.006;8.514;2023-05-20T15:44:07;9.30;;;7.83;;
7527;SDS011;3805;49.006;8.514;2023-05-20T15:46:58;7.80;;;7.20;;
7527;SDS011;3805;49.006;8.514;2023-05-20T15:49:46;7.73;;;7.17;;
7527;SDS011;3805;49.006;8.514;2023-05-20T15:52:35;8.13;;;7.53;;
7527;SDS011;3805;49.006;8.514;2023-05-20T15:55:23;8.20;;;7.53;;
7527;SDS011;3805;49.006;8.514;2023-05-20T15:58:12;7.70;;;7.10;;
7527;SDS011;3805;49.006;8.514;2023-05-20T16:01:01;7.07;;;6.57;;
7527;SDS011;3805;49.006;8.514;2023-05-20T16:03:51;10.00;;;7.73;;
7527;SDS011;3805;49.006;8.514;2023-05-20T16:06:43;7.97;;;7.27;;
7527;SDS011;3805;49.006;8.514;2023-05-20T16:09:32;8.10;;;7.40;;
7527;SDS011;3805;49.006;8.514;2023-05-20T16:12:21;8.30;;;7.50;;
7527;SDS011;3805;49.006;8.514;2023-05-20T16:15:10;9.27;;;8.57;;
7527;SDS011;3805;49.006;8.514;2023-05-20T16:17:59;8.37;;;7.77;;
7527;SDS011;3805;49.006;8.514;2023-05-20T16:20:49;7.63;;;6.93;;
7527;SDS011;3805;49.006;8.514;2023-05-20T16:23:37;8.30;;;7.60;;
7527;SDS011;3805;49.006;8.514;2023-05-20T16:26:27;8.10;;;7.40;;
7527;SDS011;3805;49.006;8.514;2023-05-20T16:29:17;8.17;;;7.47;;
7527;SDS011;3805;49.006;8.514;2023-05-20T16:32:05;7.80;;;7.10;;
7527;SDS011;3805;49.006;8.514;2023-05-20T16:34:55;8.90;;;8.00;;
7527;SDS011;3805;49.006;8.514;2023-05-20T16:37:45;8.60;;;7.90;;
7527;SDS011;3805;49.006;8.514;2023-05-20T16:40:36;8.73;;;7.80;;
7527;SDS011;3805;49.006;8.514;2023-05-20T16:43:25;8.70;;;8.00;;
7527;SDS011;3805;49.006;8.514;2023-05-20T16:46:14;8.23;;;7.53;;
7527;SDS011;3805;49.006;8.514;2023-05-20T16:49:02;9.17;;;7.90;;
7527;SDS011;3805;49.006;8.514;2023-05-20T16:51:51;9.37;;;8.47;;
7527;SDS011;3805;49.006;8.514;2023-05-20T16:54:41;8.63;;;7.83;;
7527;SDS011;3805;49.006;8.514;2023-05-20T16:57:30;8.07;;;7.40;;
7527;SDS011;3805;49.006;8.514;2023-05-20T17:00:18;7.73;;;7.13;;
7527;SDS011;3805;49.006;8.514;2023-05-20T17:03:07;9.10;;;8.30;;
7527;SDS011;3805;49.006;8.514;2023-05-20T17:05:55;7.20;;;6.70;;
7527;SDS011;3805;49.006;8.514;2023-05-20T17:08:44;8.90;;;8.20;;
7527;SDS011;3805;49.006;8.514;2023-05-20T17:11:34;8.13;;;7.30;;
7527;SDS011;3805;49.006;8.514;2023-05-20T17:14:22;8.70;;;7.80;;
7527;SDS011;3805;49.006;8.514;2023-05-20T17:17:11;7.80;;;7.20;;
7527;SDS011;3805;49.006;8.514;2023-05-20T17:20:01;8.47;;;7.70;;
7527;SDS011;3805;49.006;8.514;2023-05-20T17:22:51;8.53;;;7.87;;
7527;SDS011;3805;49.006;8.514;2023-05-20T17:25:40;9.10;;;8.30;;
7527;SDS011;3805;49.006;8.514;2023-05-20T17:28:29;9.53;;;8.63;;
7527;SDS011;3805;49.006;8.514;2023-05-20T17:31:18;8.03;;;7.33;;
7527;SDS011;3805;49.006;8.514;2023-05-20T17:34:07;8.53;;;7.93;;